Skip Navigation Links
NOAA logo - Click to go to the NOAA homepage
NOAA's National Weather Service
Alaska Aviation Weather Unit
  NWS logo - Click to go to the NWS homepage
Left Navbar Graphic     03 AKDT = 11 GMT

   
NOAA is celebrating 200 years of science, service, and stewardship. Visit the NOAA 200th celebration Web site to learn more.
USA.gov is the U.S. Government's official Web portal to all Federal, state and local government Web resources and services.
Facebook
NWS on Facebook

AAWU Home :: Display TAF Add Bookmark
TAF PAOM 290520Z 2906/3006 31004KT P6SM SKC=

METAR PAOM 290553Z 00000KT 10SM CLR M18/M20 A2978= METAR PAOM 290653Z 01003KT 10SM CLR M21/M22 A2979= METAR PAOM 290753Z AUTO 00000KT 10SM CLR M21/M23 A2979= METAR PAOM 290853Z 00000KT 10SM CLR M23/M26 A2980= METAR PAOM 290953Z 28003KT 10SM CLR M23/M24 A2981= METAR PAOM 291053Z 00000KT 10SM CLR M24/M26 A2982=
 Alaska TAF Map

NOAA's National Weather Service
Alaska Aviation Weather Unit
6930 Sand Lake Road
Anchorage, AK 99502-1845
Disclaimer
Credits
Glossary
Privacy Policy
About Us
Career Opportunities
Contact AAWU Internet Services Site last modified: April, 17th 2012